Latest Coastal Weather Observations for Point Fawcett

IDD60701

Issued at 8:01 pm CST Saturday 22 February 2020 (issued every 10 minutes, with the page automatically refreshed every 10 minutes)

About coastal observations | Map of coastal stations | Coastal observations for NT | Marine services | Other Formats
Station Details ID: 200731 Name: POINT FAWCETT Lat: -11.76 Lon: 130.03 Height: 6.5 m
Data from the previous 72 hours. | See also: Recent months at Point Fawcett
Date/Time
CST
Wind Sea
Height
m
Swell Vis
km
Cloud Weather Temp
°C
Press
hPa
Rain since
9am
mm
Dir  Spd
kts
Gust
kts
Height
m
Period
s
Dir
22/08:00pm W 14 18 - - - - - - - 30.0 1007.3 0.0
22/07:30pm W 13 16 - - - - - - - 30.1 1007.0 0.0
22/07:00pm W 14 20 - - - - - - - 30.1 1006.5 0.0
22/06:30pm W 14 17 - - - - - - - 30.3 1006.4 0.0
22/06:00pm W 13 17 - - - - - - - 30.8 1006.2 0.0
22/05:30pm W 13 17 - - - - - - - 31.1 1006.1 0.0
22/05:00pm W 14 17 - - - - - - - 31.5 1006.2 0.0
22/04:30pm W 12 16 - - - - - - - 32.0 1006.2 0.0
22/04:00pm W 13 17 - - - - - - - 32.2 1006.4 0.0
22/03:30pm W 13 16 - - - - - - - 32.4 1006.5 0.0
22/03:00pm WSW 11 17 - - - - - - - 32.4 1007.0 0.0
22/02:30pm W 11 14 - - - - - - - 30.7 1007.6 0.0
22/02:00pm W 12 15 - - - - - - - 32.3 1008.0 0.0
22/01:30pm W 11 14 - - - - - - - 32.9 1008.5 0.0
22/01:00pm WSW 10 14 - - - - - - - 32.7 1008.8 0.0
22/12:30pm WSW 12 17 - - - - - - - 32.4 1009.3 0.0
22/12:00pm WSW 11 15 - - - - - - - 32.2 1009.2 0.0
22/11:30am WSW 12 17 - - - - - - - 32.2 1009.4 0.0
22/11:00am WSW 12 18 - - - - - - - 31.5 1009.6 0.0
22/10:30am WSW 11 16 - - - - - - - 31.5 1009.5 0.0
22/10:00am WSW 11 18 - - - - - - - 31.4 1009.5 0.0
22/09:30am WSW 10 16 - - - - - - - 30.8 1009.4 0.0
22/09:00am WSW 11 16 - - - - - - - 30.4 1009.3 0.0
22/08:30am WSW 11 18 - - - - - - - 30.3 1009.1 0.0
22/08:00am WSW 12 18 - - - - - - - 29.8 1008.6 0.0
22/07:30am WSW 13 17 - - - - - - - 29.5 1008.2 0.0
22/07:00am WSW 14 19 - - - - - - - 29.4 1008.1 0.0
22/06:30am W 13 17 - - - - - - - 29.4 1008.0 0.0
22/06:00am W 14 17 - - - - - - - 29.5 1008.0 0.0
22/05:30am W 14 17 - - - - - - - 29.3 1008.0 0.0
22/05:00am W 13 18 - - - - - - - 29.4 1007.8 0.0
22/04:30am W 13 18 - - - - - - - 29.4 1007.7 0.0
22/04:00am W 15 18 - - - - - - - 29.5 1007.7 0.0
22/03:30am W 15 19 - - - - - - - 29.4 1007.9 0.0
22/03:00am W 15 19 - - - - - - - 29.5 1007.9 0.0
22/02:30am W 13 18 - - - - - - - 29.5 1008.4 0.0
22/02:00am W 13 18 - - - - - - - 29.6 1008.8 0.0
22/01:30am W 13 17 - - - - - - - 29.5 1009.3 0.0
22/01:00am WSW 13 16 - - - - - - - 29.5 1009.8 0.0
22/12:30am W 14 18 - - - - - - - 29.7 1010.0 0.0
22/12:00am W 11 14 - - - - - - - 29.5 1010.5 0.0
 
Date/Time
CST
Wind Sea
Height
m
Swell Vis
km
Cloud Weather Temp
°C
Press
hPa
Rain since
9am
mm
Dir  Spd
kts
Gust
kts
Height
m
Period
s
Dir
21/11:30pm W 12 16 - - - - - - - 29.5 1010.3 0.0
21/11:00pm W 13 16 - - - - - - - 29.5 1010.4 0.0
21/10:30pm W 13 17 - - - - - - - 29.5 1010.1 0.0
21/10:00pm W 11 14 - - - - - - - 29.4 1009.9 0.0
21/09:30pm W 11 14 - - - - - - - 29.5 1009.4 0.0
21/09:00pm WSW 11 15 - - - - - - - 29.5 1009.0 0.0
21/08:30pm WSW 8 12 - - - - - - - 29.4 1009.2 0.0
21/08:00pm WSW 8 11 - - - - - - - 29.6 1008.9 0.0
21/07:30pm WSW 8 12 - - - - - - - 29.7 1008.3 0.0
21/07:00pm WSW 9 13 - - - - - - - 29.8 1007.7 0.0
21/06:30pm WSW 7 11 - - - - - - - 29.8 1007.5 0.0
21/06:00pm WSW 9 12 - - - - - - - 30.2 1007.1 0.0
21/05:30pm WSW 8 11 - - - - - - - 31.0 1006.9 0.0
21/05:00pm SW 8 11 - - - - - - - 31.9 1007.0 0.0
21/04:30pm SW 9 12 - - - - - - - 31.7 1007.2 0.0
21/04:00pm SW 8 12 - - - - - - - 32.0 1007.4 0.0
21/03:30pm SSW 8 11 - - - - - - - 32.2 1007.7 0.0
21/03:00pm SW 8 11 - - - - - - - 31.5 1007.7 0.0
21/02:30pm SW 9 15 - - - - - - - 30.9 1008.2 0.0
21/02:00pm SW 9 13 - - - - - - - 30.9 1008.4 0.0
21/01:30pm SSW 8 14 - - - - - - - 31.3 1008.6 0.0
21/01:00pm SSW 9 16 - - - - - - - 31.2 1008.7 0.0
21/12:30pm SSW 8 15 - - - - - - - 31.2 1008.8 0.0
21/12:00pm SW 11 16 - - - - - - - 31.6 1008.9 0.0
21/11:30am SSW 11 19 - - - - - - - 30.9 1009.1 0.0
21/11:00am SW 11 18 - - - - - - - 31.1 1009.2 0.0
21/10:30am SW 10 19 - - - - - - - 30.7 1009.0 0.0
21/10:00am SSW 11 16 - - - - - - - 30.4 1009.0 0.0
21/09:30am SW 11 16 - - - - - - - 29.6 1008.8 0.0
21/09:00am SW 10 15 - - - - - - - 28.9 1008.4 37.0
21/08:30am SW 6 9 - - - - - - - 28.7 1007.9 37.0
21/08:00am W 6 9 - - - - - - - 27.6 1007.7 37.0
21/07:30am W 5 8 - - - - - - - 26.0 1007.3 37.0
21/07:00am CALM 0 0 - - - - - - - 24.8 1007.2 37.0
21/06:30am CALM 0 2 - - - - - - - 24.9 1007.4 37.0
21/06:00am NW 5 7 - - - - - - - 25.1 1007.6 37.0
21/05:30am NNE 3 6 - - - - - - - 24.7 1007.9 37.0
21/05:00am ENE 3 5 - - - - - - - 24.4 1008.2 37.0
21/04:30am NE 4 5 - - - - - - - 24.2 1007.8 37.0
21/04:00am E 4 6 - - - - - - - 24.1 1007.9 37.0
21/03:30am E 6 9 - - - - - - - 24.3 1008.1 37.0
21/03:00am E 2 5 - - - - - - - 25.1 1008.3 36.6
21/02:30am N 3 6 - - - - - - - 25.0 1008.7 36.2
21/02:00am CALM 0 0 - - - - - - - 24.6 1008.6 35.8
21/01:30am CALM 0 3 - - - - - - - 24.8 1009.2 35.4
21/01:00am N 5 8 - - - - - - - 24.7 1009.3 35.0
21/12:30am ENE 4 7 - - - - - - - 24.1 1009.6 34.4
21/12:00am E 4 5 - - - - - - - 23.8 1009.6 33.4
 
Date/Time
CST
Wind Sea
Height
m
Swell Vis
km
Cloud Weather Temp
°C
Press
hPa
Rain since
9am
mm
Dir  Spd
kts
Gust
kts
Height
m
Period
s
Dir
20/11:30pm E 7 11 - - - - - - - 23.9 1010.4 30.4
20/11:00pm E 12 19 - - - - - - - 24.3 1010.6 22.0
20/10:57pm E 13 19 - - - - - - - 24.2 1010.2 21.2
20/10:30pm WNW 15 19 - - - - - - - 29.2 1009.7 0.0
20/10:00pm WNW 18 24 - - - - - - - 28.1 1008.9 0.0
20/09:30pm WNW 21 28 - - - - - - - 27.0 1009.0 0.0
20/09:00pm W 15 19 - - - - - - - 29.7 1008.3 0.0
20/08:30pm W 17 22 - - - - - - - 29.5 1008.1 0.0
20/08:00pm W 20 26 - - - - - - - 29.7 1007.4 0.0
20/07:30pm W 20 26 - - - - - - - 29.7 1006.7 0.0
20/07:00pm WNW 18 24 - - - - - - - 29.2 1006.2 0.0
20/06:30pm WNW 18 25 - - - - - - - 28.4 1005.8 0.0
20/06:00pm W 13 17 - - - - - - - 30.2 1005.1 0.0
20/05:30pm WNW 14 17 - - - - - - - 30.7 1005.0 0.0
20/05:00pm WNW 16 21 - - - - - - - 30.6 1005.2 0.0
20/04:30pm WNW 14 17 - - - - - - - 30.2 1005.5 0.0
20/04:00pm W 13 16 - - - - - - - 31.0 1005.9 0.0
20/03:30pm W 12 16 - - - - - - - 31.2 1006.4 0.0
20/03:00pm W 11 14 - - - - - - - 31.0 1006.7 0.0
20/02:30pm W 10 13 - - - - - - - 31.5 1006.9 0.0
20/02:00pm W 10 13 - - - - - - - 31.6 1007.0 0.0
20/01:30pm W 10 14 - - - - - - - 31.1 1007.7 0.0
20/01:00pm W 10 14 - - - - - - - 31.2 1008.1 0.0
20/12:30pm W 9 12 - - - - - - - 30.7 1008.3 0.0
20/12:00pm WSW 8 12 - - - - - - - 30.6 1007.8 0.0
20/11:30am WSW 9 12 - - - - - - - 30.2 1007.8 0.0
20/11:00am WSW 7 9 - - - - - - - 29.8 1008.4 0.0
20/10:30am WSW 6 10 - - - - - - - 28.8 1008.9 0.0
20/10:00am W 8 11 - - - - - - - 27.8 1009.3 0.0
20/09:30am WNW 7 11 - - - - - - - 27.7 1009.0 0.0
20/09:00am WNW 7 10 - - - - - - - 26.2 1008.2 28.2
20/08:30am WNW 5 7 - - - - - - - 24.8 1008.0 28.2
20/08:00am SSW 3 4 - - - - - - - 23.8 1008.4 27.4
20/07:30am SSE 6 10 - - - - - - - 24.4 1008.7 25.2
20/07:00am SE 7 12 - - - - - - - 24.3 1008.9 20.2
20/06:30am ESE 7 12 - - - - - - - 24.5 1008.5 18.8
20/06:00am ESE 8 14 - - - - - - - 24.4 1008.5 17.4
20/05:30am ESE 8 14 - - - - - - - 24.1 1008.3 6.2
20/05:00am ESE 10 23 - - - - - - - 23.6 1007.5 3.2
20/04:30am E 11 19 - - - - - - - 25.1 1007.4 0.0
20/04:00am W 8 10 - - - - - - - 29.7 1006.3 0.0
20/03:30am W 10 14 - - - - - - - 29.7 1006.9 0.0
20/03:00am W 12 15 - - - - - - - 29.8 1006.7 0.0
20/02:30am WNW 11 14 - - - - - - - 29.8 1006.9 0.0
20/02:00am W 11 15 - - - - - - - 29.9 1006.9 0.0
20/01:30am W 11 14 - - - - - - - 29.7 1006.9 0.0
20/01:00am W 11 14 - - - - - - - 29.8 1007.4 0.0
20/12:30am W 9 12 - - - - - - - 29.9 1007.8 0.0
20/12:00am W 10 13 - - - - - - - 29.9 1008.0 0.0
 
Date/Time
CST
Wind Sea
Height
m
Swell Vis
km
Cloud Weather Temp
°C
Press
hPa
Rain since
9am
mm
Dir  Spd
kts
Gust
kts
Height
m
Period
s
Dir
19/11:30pm W 9 11 - - - - - - - 30.0 1008.5 0.0
19/11:00pm W 9 12 - - - - - - - 29.9 1008.4 0.0
19/10:30pm W 10 14 - - - - - - - 29.9 1008.2 0.0
19/10:00pm W 10 13 - - - - - - - 29.9 1007.9 0.0
19/09:30pm W 11 14 - - - - - - - 29.9 1007.2 0.0
19/09:00pm WSW 9 13 - - - - - - - 29.9 1006.9 0.0
19/08:30pm WSW 9 11 - - - - - - - 30.0 1006.7 0.0

Other formats

Comma delimited format used in spreadsheet applications
http://www.bom.gov.au/fwo/IDD60701/IDD60701.94122.axf

JavaScript Object Notation format (JSON) in row-major order
http://www.bom.gov.au/fwo/IDD60701/IDD60701.94122.json

Data quality

Most of these data are generated automatically and are frequently updated. Quality checks on data are not normally performed. It is possible for incorrect values to appear. Refer to information at About Latest Weather Observations and please check the disclaimer before using these data.